createdAt,value
2023-03-21T00:02:35.569Z,17.25
2023-03-21T00:07:32.511Z,14.65
2023-03-21T00:12:25.903Z,13.80
2023-03-21T00:17:22.460Z,14.32
2023-03-21T00:22:16.086Z,14.82
2023-03-21T00:27:38.390Z,13.75
2023-03-21T00:32:24.890Z,14.52
2023-03-21T00:37:19.140Z,13.63
2023-03-21T00:42:13.816Z,14.48
2023-03-21T00:47:08.227Z,14.32
2023-03-21T00:52:14.685Z,14.93
2023-03-21T00:57:10.220Z,16.88
2023-03-21T01:02:07.476Z,17.85
2023-03-21T01:07:01.239Z,17.00
2023-03-21T01:11:56.509Z,18.95
2023-03-21T01:16:50.402Z,17.05
2023-03-21T01:21:48.076Z,17.00
2023-03-21T01:26:43.939Z,19.85
2023-03-21T01:31:37.260Z,19.13
2023-03-21T01:36:31.948Z,24.02
2023-03-21T01:41:44.298Z,21.85
2023-03-21T01:46:56.999Z,20.65
2023-03-21T01:52:12.804Z,17.42
2023-03-21T01:57:17.785Z,17.48
2023-03-21T02:02:20.879Z,18.48
2023-03-21T02:12:33.733Z,17.73
2023-03-21T02:17:36.967Z,18.75
2023-03-21T02:23:05.037Z,17.52
2023-03-21T02:28:09.546Z,29.13
2023-03-21T02:33:30.145Z,24.95
2023-03-21T02:38:30.481Z,24.45
2023-03-21T02:43:32.392Z,23.38
2023-03-21T02:48:48.136Z,21.92
2023-03-21T02:54:13.019Z,21.08
2023-03-21T02:59:08.248Z,18.50
2023-03-21T03:04:02.484Z,20.83
2023-03-21T03:09:16.064Z,20.30
2023-03-21T03:14:56.525Z,18.80
2023-03-21T03:20:24.116Z,20.77
2023-03-21T03:25:32.657Z,21.25
2023-03-21T03:30:42.251Z,22.13
2023-03-21T03:35:41.214Z,22.25
2023-03-21T03:40:42.373Z,22.95
2023-03-21T03:50:48.524Z,20.15
2023-03-21T03:55:48.710Z,20.48
2023-03-21T04:00:43.849Z,20.10
2023-03-21T04:05:37.308Z,18.15
2023-03-21T04:10:31.778Z,19.77
2023-03-21T04:15:28.386Z,18.88
2023-03-21T04:20:43.492Z,18.98
2023-03-21T04:25:44.656Z,18.30
2023-03-21T04:31:00.258Z,17.75
2023-03-21T04:35:59.085Z,17.65
2023-03-21T04:40:57.895Z,20.20
2023-03-21T04:45:53.554Z,19.45
2023-03-21T04:50:47.355Z,19.45
2023-03-21T04:55:40.686Z,19.40
2023-03-21T05:00:37.606Z,23.30
2023-03-21T05:05:33.850Z,22.90
2023-03-21T05:10:27.102Z,21.95
2023-03-21T05:15:23.066Z,19.27
2023-03-21T05:20:20.286Z,21.13
2023-03-21T05:25:18.184Z,19.70
2023-03-21T05:30:25.171Z,21.83
2023-03-21T05:35:24.495Z,22.92
2023-03-21T05:40:21.345Z,21.13
2023-03-21T05:45:15.405Z,22.10
2023-03-21T05:50:11.479Z,22.60
2023-03-21T05:55:07.613Z,22.38
2023-03-21T06:00:03.307Z,23.70
2023-03-21T06:05:09.084Z,22.00
2023-03-21T06:10:02.652Z,20.08
2023-03-21T06:14:58.862Z,19.83
2023-03-21T06:20:01.204Z,21.42
2023-03-21T06:25:10.359Z,21.38
2023-03-21T06:30:05.042Z,22.45
2023-03-21T06:35:05.903Z,24.27
2023-03-21T06:39:59.397Z,23.10
2023-03-21T06:44:52.707Z,22.08
2023-03-21T06:49:46.031Z,22.50
2023-03-21T06:54:41.525Z,21.60
2023-03-21T06:59:39.057Z,23.52
2023-03-21T07:05:01.142Z,20.85
2023-03-21T07:09:57.738Z,22.90
2023-03-21T07:14:54.327Z,22.65
2023-03-21T07:19:47.553Z,21.92
2023-03-21T07:24:43.479Z,22.77
2023-03-21T07:29:38.129Z,21.63
2023-03-21T07:34:33.903Z,22.30
2023-03-21T07:39:29.919Z,23.13
2023-03-21T07:44:23.411Z,20.70
2023-03-21T07:49:34.146Z,20.23
2023-03-21T07:54:28.815Z,18.60
2023-03-21T07:59:22.333Z,19.52
2023-03-21T08:04:18.604Z,18.42
2023-03-21T08:09:13.140Z,17.25
2023-03-21T08:14:06.289Z,18.50
2023-03-21T08:18:59.603Z,18.38
2023-03-21T08:23:55.386Z,17.77
2023-03-21T08:28:50.222Z,18.90
2023-03-21T08:33:43.529Z,17.38
2023-03-21T08:38:37.131Z,17.27
2023-03-21T08:43:30.553Z,17.80
2023-03-21T08:48:25.718Z,18.67
2023-03-21T08:53:22.266Z,17.08
2023-03-21T08:58:15.598Z,16.02
2023-03-21T09:03:11.215Z,15.43
2023-03-21T09:08:06.600Z,14.77
2023-03-21T09:12:59.926Z,14.57
2023-03-21T09:17:54.490Z,14.68
2023-03-21T09:22:48.977Z,15.35
2023-03-21T09:27:47.171Z,14.48
2023-03-21T09:32:43.007Z,14.80
2023-03-21T09:37:38.435Z,14.40
2023-03-21T09:42:41.797Z,13.93
2023-03-21T09:47:45.500Z,12.68
2023-03-21T09:52:48.230Z,13.10
2023-03-21T09:57:45.885Z,13.65
2023-03-21T10:02:45.677Z,13.00
2023-03-21T10:07:44.674Z,13.23
2023-03-21T10:12:38.000Z,12.90
2023-03-21T10:17:35.218Z,11.93
2023-03-21T10:22:29.725Z,13.05
2023-03-21T10:27:22.848Z,12.38
2023-03-21T10:32:19.457Z,15.48
2023-03-21T10:37:13.973Z,13.30
2023-03-21T10:42:18.668Z,13.60
2023-03-21T10:47:11.979Z,14.65
2023-03-21T10:52:08.559Z,14.90
2023-03-21T10:57:05.969Z,15.13
2023-03-21T11:02:00.604Z,13.80
2023-03-21T11:06:57.018Z,14.70
2023-03-21T11:11:55.932Z,12.77
2023-03-21T11:16:52.304Z,13.52
2023-03-21T11:21:47.351Z,11.77
2023-03-21T11:26:43.602Z,13.23
2023-03-21T11:31:41.303Z,12.63
2023-03-21T11:36:39.355Z,12.73
2023-03-21T11:41:35.718Z,12.48
2023-03-21T11:46:33.358Z,12.80
2023-03-21T11:51:34.849Z,12.45
2023-03-21T11:56:31.282Z,13.13
2023-03-21T12:01:33.496Z,12.52
2023-03-21T12:06:31.727Z,12.77
2023-03-21T12:11:37.353Z,13.95
2023-03-21T12:16:44.669Z,14.02
2023-03-21T12:21:48.101Z,15.20
2023-03-21T12:26:53.383Z,14.85
2023-03-21T12:31:59.355Z,14.50
2023-03-21T12:37:14.469Z,14.20
2023-03-21T12:42:25.718Z,14.13
2023-03-21T12:47:24.775Z,14.85
2023-03-21T12:52:21.594Z,14.63
2023-03-21T12:57:21.388Z,13.52
2023-03-21T13:02:27.934Z,13.00
2023-03-21T13:07:25.327Z,13.15
2023-03-21T13:12:29.828Z,12.18
2023-03-21T13:17:31.510Z,11.90
2023-03-21T13:22:29.391Z,12.32
2023-03-21T13:27:29.753Z,12.65
2023-03-21T13:32:30.906Z,12.32
2023-03-21T13:37:28.092Z,12.45
2023-03-21T13:42:31.910Z,13.52
2023-03-21T13:47:40.632Z,12.63
2023-03-21T13:52:33.755Z,12.50
2023-03-21T13:57:40.322Z,13.63
2023-03-21T14:02:39.652Z,13.20
2023-03-21T14:07:35.041Z,13.10
2023-03-21T14:12:30.525Z,12.98
2023-03-21T14:17:26.606Z,12.23
2023-03-21T14:22:21.340Z,11.60
2023-03-21T14:27:15.030Z,11.98
2023-03-21T14:32:19.118Z,12.77
2023-03-21T14:37:12.790Z,12.48
2023-03-21T14:42:09.415Z,12.90
2023-03-21T14:47:03.984Z,11.98
2023-03-21T14:52:00.149Z,12.55
2023-03-21T14:57:00.121Z,13.73
2023-03-21T15:01:56.016Z,14.60
2023-03-21T15:06:57.822Z,13.63
2023-03-21T15:11:53.617Z,12.98
2023-03-21T15:16:47.829Z,13.90
2023-03-21T15:21:56.200Z,13.90
2023-03-21T15:26:50.638Z,15.02
2023-03-21T15:31:45.774Z,14.73
2023-03-21T15:36:48.061Z,15.60
2023-03-21T15:41:43.154Z,16.00
2023-03-21T15:46:43.196Z,14.13
2023-03-21T15:51:42.679Z,15.23
2023-03-21T15:56:37.538Z,15.63
2023-03-21T16:01:35.018Z,19.27
2023-03-21T16:07:02.658Z,18.60
2023-03-21T16:12:02.778Z,14.95
2023-03-21T16:16:59.362Z,15.50
2023-03-21T16:21:53.524Z,16.80
2023-03-21T16:27:00.156Z,16.35
2023-03-21T16:32:00.806Z,17.55
2023-03-21T16:37:04.762Z,22.17
2023-03-21T16:42:01.484Z,18.05
2023-03-21T16:46:55.019Z,17.10
2023-03-21T16:51:49.701Z,18.33
2023-03-21T16:56:50.492Z,18.02
2023-03-21T17:01:52.164Z,52.00
2023-03-21T17:06:47.597Z,38.92
2023-03-21T17:11:51.723Z,24.73
2023-03-21T17:16:47.879Z,22.65
2023-03-21T17:21:41.573Z,20.00
2023-03-21T17:26:35.034Z,20.52
2023-03-21T17:31:47.574Z,20.55
2023-03-21T17:36:45.041Z,19.35
2023-03-21T17:41:38.499Z,20.98
2023-03-21T17:46:37.926Z,18.40
2023-03-21T17:51:33.312Z,18.50
2023-03-21T17:56:30.105Z,20.27
2023-03-21T18:01:24.218Z,20.95
2023-03-21T18:06:28.922Z,22.95
2023-03-21T18:11:25.844Z,22.85
2023-03-21T18:16:28.277Z,22.65
2023-03-21T18:21:38.093Z,21.02
2023-03-21T18:26:33.004Z,20.97
2023-03-21T18:31:31.482Z,20.70
2023-03-21T18:36:27.819Z,21.60
2023-03-21T18:41:24.888Z,20.85
2023-03-21T18:46:19.998Z,20.45
2023-03-21T18:51:13.504Z,20.98
2023-03-21T18:56:10.229Z,21.58
2023-03-21T19:01:07.023Z,22.73
2023-03-21T19:06:03.907Z,22.35
2023-03-21T19:11:00.277Z,27.23
2023-03-21T19:15:56.698Z,22.67
2023-03-21T19:20:53.614Z,23.20
2023-03-21T19:25:48.370Z,24.45
2023-03-21T19:30:49.849Z,23.80
2023-03-21T19:35:43.929Z,22.50
2023-03-21T19:40:40.020Z,26.75
2023-03-21T19:45:39.470Z,24.33
2023-03-21T19:50:57.998Z,23.20
2023-03-21T19:55:54.095Z,25.50
2023-03-21T20:00:49.397Z,26.15
2023-03-21T20:05:45.256Z,22.80
2023-03-21T20:10:38.928Z,22.83
2023-03-21T20:15:32.361Z,22.77
2023-03-21T20:20:28.093Z,20.85
2023-03-21T20:25:23.191Z,21.90
2023-03-21T20:30:19.024Z,20.17
2023-03-21T20:35:21.149Z,20.00
2023-03-21T20:40:26.674Z,19.20
2023-03-21T20:45:20.775Z,21.02
2023-03-21T20:50:15.765Z,20.67
2023-03-21T20:55:11.631Z,20.08
2023-03-21T21:00:13.786Z,20.83
2023-03-21T21:05:25.325Z,22.15
2023-03-21T21:10:22.453Z,20.67
2023-03-21T21:15:19.686Z,21.48
2023-03-21T21:20:20.663Z,23.33
2023-03-21T21:25:16.050Z,22.17
2023-03-21T21:30:20.373Z,22.35
2023-03-21T21:35:13.762Z,21.73
2023-03-21T21:40:13.017Z,23.65
2023-03-21T21:45:08.691Z,25.15
2023-03-21T21:50:03.480Z,25.05
2023-03-21T21:54:56.834Z,26.23
2023-03-21T21:59:54.281Z,24.60
2023-03-21T22:04:47.525Z,24.17
2023-03-21T22:09:42.438Z,26.17
2023-03-21T22:14:36.019Z,25.20
2023-03-21T22:19:32.616Z,25.05
2023-03-21T22:24:26.157Z,25.38
2023-03-21T22:29:20.896Z,26.27
2023-03-21T22:34:14.089Z,26.25
2023-03-21T22:39:07.430Z,30.25
2023-03-21T22:44:00.892Z,29.45
2023-03-21T22:48:55.707Z,28.30
2023-03-21T22:53:51.304Z,27.83
2023-03-21T22:58:44.501Z,28.48
2023-03-21T23:03:38.402Z,26.05
2023-03-21T23:08:32.965Z,28.08
2023-03-21T23:13:26.644Z,28.45
2023-03-21T23:18:19.912Z,26.40
2023-03-21T23:23:13.143Z,26.83
2023-03-21T23:28:08.337Z,24.85
2023-03-21T23:33:01.512Z,25.98
2023-03-21T23:37:54.614Z,26.42
2023-03-21T23:42:47.740Z,27.45
2023-03-21T23:47:42.337Z,27.27
2023-03-21T23:52:35.785Z,24.65
2023-03-21T23:57:29.010Z,23.20
